createdAt,value
2022-10-12T00:00:53.550Z,71.0
2022-10-12T00:03:24.168Z,71.0
2022-10-12T00:05:54.746Z,71.0
2022-10-12T00:08:25.346Z,71.0
2022-10-12T00:11:05.950Z,71.0
2022-10-12T00:13:36.548Z,71.0
2022-10-12T00:16:07.138Z,71.0
2022-10-12T00:18:37.739Z,71.0
2022-10-12T00:21:08.286Z,71.0
2022-10-12T00:23:38.912Z,71.0
2022-10-12T00:26:19.518Z,71.0
2022-10-12T00:28:50.232Z,71.0
2022-10-12T00:31:20.894Z,71.0
2022-10-12T00:33:51.506Z,71.0
2022-10-12T00:38:52.247Z,71.0
2022-10-12T00:41:32.862Z,71.0
2022-10-12T00:44:08.087Z,71.0
2022-10-12T00:46:28.754Z,71.0
2022-10-12T00:48:59.329Z,71.0
2022-10-12T00:51:29.923Z,71.0
2022-10-12T00:54:20.540Z,71.0
2022-10-12T00:56:51.114Z,71.0
2022-10-12T00:59:21.748Z,71.0
2022-10-12T01:01:52.342Z,71.0
2022-10-12T01:04:22.946Z,71.0
2022-10-12T01:06:53.522Z,71.0
2022-10-12T01:09:34.104Z,71.0
2022-10-12T01:12:04.698Z,71.0
2022-10-12T01:14:35.310Z,71.0
2022-10-12T01:19:36.056Z,71.0
2022-10-12T01:22:06.630Z,71.0
2022-10-12T01:24:47.250Z,71.0
2022-10-12T01:27:17.844Z,71.0
2022-10-12T01:29:48.453Z,71.0
2022-10-12T01:32:19.040Z,71.0
2022-10-12T01:34:49.619Z,71.0
2022-10-12T01:37:20.216Z,72.0
2022-10-12T01:40:00.811Z,72.0
2022-10-12T01:42:31.387Z,72.0
2022-10-12T01:45:02.001Z,71.0
2022-10-12T01:47:32.582Z,72.0
2022-10-12T01:50:03.165Z,72.0
2022-10-12T01:52:33.772Z,72.0
2022-10-12T01:55:14.383Z,72.0
2022-10-12T02:00:15.233Z,72.0
2022-10-12T02:02:45.830Z,72.0
2022-10-12T02:05:16.430Z,72.0
2022-10-12T02:07:57.021Z,72.0
2022-10-12T02:10:27.592Z,72.0
2022-10-12T02:12:58.161Z,72.0
2022-10-12T02:15:28.791Z,72.0
2022-10-12T02:17:59.369Z,72.0
2022-10-12T02:20:29.977Z,72.0
2022-10-12T02:23:10.553Z,72.0
2022-10-12T02:25:41.198Z,72.0
2022-10-12T02:28:11.875Z,72.0
2022-10-12T02:30:42.555Z,72.0
2022-10-12T02:33:13.130Z,72.0
2022-10-12T02:35:43.701Z,72.0
2022-10-12T02:40:54.457Z,72.0
2022-10-12T02:43:25.048Z,72.0
2022-10-12T02:45:55.626Z,72.0
2022-10-12T02:48:26.198Z,72.0
2022-10-12T02:50:56.790Z,72.0
2022-10-12T02:53:37.393Z,72.0
2022-10-12T02:56:17.990Z,72.0
2022-10-12T02:58:48.597Z,72.0
2022-10-12T03:01:19.289Z,72.0
2022-10-12T03:03:50.130Z,72.0
2022-10-12T03:06:20.732Z,72.0
2022-10-12T03:09:01.332Z,72.0
2022-10-12T03:14:02.075Z,72.0
2022-10-12T03:16:32.681Z,72.0
2022-10-12T03:21:43.411Z,72.0
2022-10-12T03:24:14.016Z,72.0
2022-10-12T03:26:44.605Z,72.0
2022-10-12T03:29:15.208Z,72.0
2022-10-12T03:31:45.794Z,72.0
2022-10-12T03:34:16.346Z,72.0
2022-10-12T03:36:56.956Z,72.0
2022-10-12T03:39:27.545Z,72.0
2022-10-12T03:41:58.157Z,72.0
2022-10-12T03:44:28.754Z,72.0
2022-10-12T03:46:59.343Z,72.0
2022-10-12T03:49:29.926Z,72.0
2022-10-12T03:52:10.569Z,72.0
2022-10-12T03:54:41.177Z,72.0
2022-10-12T03:57:11.742Z,72.0
2022-10-12T04:02:16.613Z,72.0
2022-10-12T04:04:47.518Z,72.0
2022-10-12T04:07:28.119Z,72.0
2022-10-12T04:09:59.395Z,72.0
2022-10-12T04:12:29.982Z,72.0
2022-10-12T04:15:00.607Z,72.0
2022-10-12T04:17:31.325Z,72.0
2022-10-12T04:20:12.319Z,72.0
2022-10-12T04:22:42.904Z,72.0
2022-10-12T04:25:13.507Z,72.0
2022-10-12T04:27:40.535Z,72.0
2022-10-12T04:30:11.387Z,72.0
2022-10-12T04:32:42.004Z,72.0
2022-10-12T04:35:22.595Z,72.0
2022-10-12T04:37:53.179Z,72.0
2022-10-12T04:42:53.910Z,72.0
2022-10-12T04:45:24.503Z,72.0
2022-10-12T04:47:55.094Z,72.0
2022-10-12T04:50:40.213Z,72.0
2022-10-12T04:53:10.824Z,72.0
2022-10-12T04:55:41.417Z,72.0
2022-10-12T04:58:12.010Z,72.0
2022-10-12T05:00:42.630Z,72.0
2022-10-12T05:03:13.212Z,72.0
2022-10-12T05:05:53.814Z,72.0
2022-10-12T05:08:24.403Z,72.0
2022-10-12T05:10:54.973Z,72.0
2022-10-12T05:13:25.661Z,73.0
2022-10-12T05:15:56.247Z,73.0
2022-10-12T05:18:26.868Z,73.0
2022-10-12T05:23:37.627Z,73.0
2022-10-12T05:26:08.218Z,73.0
2022-10-12T05:28:41.194Z,73.0
2022-10-12T05:31:12.030Z,73.0
2022-10-12T05:33:52.619Z,73.0
2022-10-12T05:36:23.224Z,73.0
2022-10-12T05:38:53.821Z,73.0
2022-10-12T05:41:24.418Z,73.0
2022-10-12T05:43:55.025Z,73.0
2022-10-12T05:46:25.603Z,73.0
2022-10-12T05:49:06.214Z,73.0
2022-10-12T05:51:39.330Z,73.0
2022-10-12T05:54:09.953Z,73.0
2022-10-12T05:56:40.535Z,73.0
2022-10-12T05:59:11.151Z,73.0
2022-10-12T06:04:21.886Z,73.0
2022-10-12T06:06:52.497Z,73.0
2022-10-12T06:09:23.102Z,73.0
2022-10-12T06:11:53.680Z,73.0
2022-10-12T06:14:24.308Z,73.0
2022-10-12T06:16:54.894Z,73.0
2022-10-12T06:19:35.513Z,73.0
2022-10-12T06:22:06.121Z,73.0
2022-10-12T06:24:36.712Z,73.0
2022-10-12T06:27:07.296Z,73.0
2022-10-12T06:29:37.912Z,73.0
2022-10-12T06:32:08.483Z,73.0
2022-10-12T06:34:49.084Z,73.0
2022-10-12T06:37:49.385Z,73.0
2022-10-12T06:39:50.711Z,73.0
2022-10-12T06:44:51.594Z,73.0
2022-10-12T06:47:32.207Z,73.0
2022-10-12T06:50:02.798Z,73.0
2022-10-12T06:52:33.394Z,72.0
2022-10-12T06:55:04.012Z,72.0
2022-10-12T06:57:34.604Z,72.0
2022-10-12T07:00:05.211Z,72.0
2022-10-12T07:02:46.140Z,72.0
2022-10-12T07:05:16.768Z,72.0
2022-10-12T07:07:47.368Z,72.0
2022-10-12T07:10:17.948Z,72.0
2022-10-12T07:12:49.089Z,72.0
2022-10-12T07:15:19.692Z,72.0
2022-10-12T07:18:00.292Z,72.0
2022-10-12T07:20:30.917Z,72.0
2022-10-12T07:25:31.670Z,72.0
2022-10-12T07:28:02.268Z,72.0
2022-10-12T07:30:33.022Z,72.0
2022-10-12T07:33:13.620Z,72.0
2022-10-12T07:36:10.478Z,72.0
2022-10-12T07:38:14.929Z,72.0
2022-10-12T07:40:45.528Z,72.0
2022-10-12T07:43:26.252Z,72.0
2022-10-12T07:45:56.843Z,72.0
2022-10-12T07:48:27.457Z,72.0
2022-10-12T07:50:58.047Z,72.0
2022-10-12T07:53:38.662Z,71.0
2022-10-12T07:56:09.251Z,71.0
2022-10-12T07:58:39.844Z,71.0
2022-10-12T08:01:20.478Z,71.0
2022-10-12T08:06:21.345Z,71.0
2022-10-12T08:08:51.959Z,71.0
2022-10-12T08:11:22.625Z,71.0
2022-10-12T08:13:53.218Z,71.0
2022-10-12T08:16:33.826Z,71.0
2022-10-12T08:19:04.445Z,70.0
2022-10-12T08:21:35.025Z,70.0
2022-10-12T08:24:05.624Z,70.0
2022-10-12T08:26:36.211Z,70.0
2022-10-12T08:29:06.878Z,70.0
2022-10-12T08:31:47.493Z,69.0
2022-10-12T08:34:18.070Z,69.0
2022-10-12T08:36:48.632Z,69.0
2022-10-12T08:39:19.217Z,69.0
2022-10-12T08:41:49.841Z,68.0
2022-10-12T08:47:00.581Z,68.0
2022-10-12T08:49:31.152Z,68.0
2022-10-12T08:52:04.593Z,67.0
2022-10-12T08:54:35.203Z,67.0
2022-10-12T08:57:05.806Z,67.0
2022-10-12T08:59:46.433Z,67.0
2022-10-12T09:02:17.304Z,66.0
2022-10-12T09:04:47.962Z,66.0
2022-10-12T09:07:18.511Z,66.0
2022-10-12T09:09:53.441Z,66.0
2022-10-12T09:12:14.020Z,66.0
2022-10-12T09:14:54.665Z,66.0
2022-10-12T09:17:25.263Z,66.0
2022-10-12T09:19:55.862Z,66.0
2022-10-12T09:22:26.446Z,65.0
2022-10-12T09:27:27.554Z,65.0
2022-10-12T09:30:12.228Z,65.0
2022-10-12T09:32:42.809Z,65.0
2022-10-12T09:35:13.581Z,65.0
2022-10-12T09:37:44.332Z,65.0
2022-10-12T09:40:14.944Z,65.0
2022-10-12T09:42:45.568Z,65.0
2022-10-12T09:45:26.772Z,64.0
2022-10-12T09:47:57.357Z,64.0
2022-10-12T09:50:27.965Z,64.0
2022-10-12T09:52:58.561Z,64.0
2022-10-12T09:55:29.840Z,64.0
2022-10-12T09:58:10.443Z,64.0
2022-10-12T10:00:41.067Z,64.0
2022-10-12T10:03:11.649Z,64.0
2022-10-12T10:08:12.355Z,64.0
2022-10-12T10:10:42.964Z,64.0
2022-10-12T10:13:23.585Z,64.0
2022-10-12T10:15:54.186Z,64.0
2022-10-12T10:18:24.788Z,64.0
2022-10-12T10:20:55.376Z,63.0
2022-10-12T10:23:25.967Z,64.0
2022-10-12T10:25:56.578Z,64.0
2022-10-12T10:28:37.345Z,64.0
2022-10-12T10:31:08.098Z,64.0
2022-10-12T10:33:38.690Z,63.0
2022-10-12T10:36:09.266Z,63.0
2022-10-12T10:38:39.857Z,64.0
2022-10-12T10:41:10.479Z,63.0
2022-10-12T10:43:51.098Z,63.0
2022-10-12T10:49:01.831Z,63.0
2022-10-12T10:51:32.399Z,63.0
2022-10-12T10:54:02.997Z,63.0
2022-10-12T10:56:33.587Z,63.0
2022-10-12T10:59:20.072Z,63.0
2022-10-12T11:01:40.798Z,63.0
2022-10-12T11:04:11.551Z,62.0
2022-10-12T11:06:42.149Z,63.0
2022-10-12T11:09:12.765Z,63.0
2022-10-12T11:11:53.334Z,63.0
2022-10-12T11:14:23.960Z,63.0
2022-10-12T11:16:54.551Z,63.0
2022-10-12T11:21:55.295Z,63.0
2022-10-12T11:29:36.211Z,63.0
2022-10-12T11:32:13.962Z,64.0
2022-10-12T11:34:45.523Z,64.0
2022-10-12T11:37:29.813Z,64.0
2022-10-12T11:39:40.370Z,64.0
2022-10-12T11:42:32.015Z,64.0
2022-10-12T11:44:54.162Z,64.0
2022-10-12T11:47:25.247Z,64.0
2022-10-12T11:49:55.824Z,64.0
2022-10-12T11:52:28.882Z,64.0
2022-10-12T11:54:59.813Z,64.0
2022-10-12T11:57:40.395Z,64.0
2022-10-12T12:00:10.993Z,64.0
2022-10-12T12:02:41.571Z,64.0
2022-10-12T12:05:16.220Z,64.0
2022-10-12T12:10:17.305Z,64.0
2022-10-12T12:12:47.885Z,64.0
2022-10-12T12:15:18.486Z,64.0
2022-10-12T12:17:49.103Z,64.0
2022-10-12T12:20:19.702Z,64.0
2022-10-12T12:23:00.291Z,64.0
2022-10-12T12:25:40.878Z,64.0
2022-10-12T12:28:11.524Z,64.0
2022-10-12T12:30:42.222Z,64.0
2022-10-12T12:33:12.826Z,64.0
2022-10-12T12:35:43.400Z,64.0
2022-10-12T12:38:14.009Z,64.0
2022-10-12T12:40:54.609Z,64.0
2022-10-12T12:43:25.229Z,64.0
2022-10-12T12:45:55.850Z,64.0
2022-10-12T12:50:56.600Z,64.0
2022-10-12T12:53:37.223Z,63.0
2022-10-12T12:56:07.779Z,63.0
2022-10-12T12:58:38.378Z,63.0
2022-10-12T13:01:08.960Z,63.0
2022-10-12T13:03:39.632Z,63.0
2022-10-12T13:06:10.255Z,63.0
2022-10-12T13:08:50.867Z,63.0
2022-10-12T13:11:21.459Z,63.0
2022-10-12T13:13:52.057Z,63.0
2022-10-12T13:17:23.767Z,63.0
2022-10-12T13:18:58.091Z,63.0
2022-10-12T13:21:18.661Z,63.0
2022-10-12T13:23:59.258Z,63.0
2022-10-12T13:26:29.828Z,63.0
2022-10-12T13:31:40.570Z,62.0
2022-10-12T13:34:11.168Z,62.0
2022-10-12T13:36:41.761Z,62.0
2022-10-12T13:39:22.371Z,62.0
2022-10-12T13:41:48.759Z,62.0
2022-10-12T13:44:19.471Z,62.0
2022-10-12T13:46:50.042Z,61.0
2022-10-12T13:49:20.626Z,61.0
2022-10-12T13:52:01.704Z,61.0
2022-10-12T13:54:32.312Z,62.0
2022-10-12T13:57:02.968Z,62.0
2022-10-12T13:59:33.625Z,61.0
2022-10-12T14:02:04.183Z,62.0
2022-10-12T14:04:34.761Z,62.0
2022-10-12T14:07:15.367Z,62.0
2022-10-12T14:12:16.108Z,62.0
2022-10-12T14:14:46.697Z,62.0
2022-10-12T14:17:17.297Z,62.0
2022-10-12T14:19:47.886Z,62.0
2022-10-12T14:22:28.467Z,62.0
2022-10-12T14:24:59.068Z,62.0
2022-10-12T14:27:29.639Z,61.0
2022-10-12T14:30:00.242Z,62.0
2022-10-12T14:32:30.840Z,62.0
2022-10-12T14:35:01.396Z,62.0
2022-10-12T14:37:42.312Z,62.0
2022-10-12T14:40:12.913Z,63.0
2022-10-12T14:42:43.501Z,63.0
2022-10-12T14:45:14.177Z,63.0
2022-10-12T14:47:44.747Z,63.0
2022-10-12T14:53:05.447Z,63.0
2022-10-12T14:55:36.072Z,64.0
2022-10-12T14:58:00.075Z,64.0
2022-10-12T15:00:30.679Z,64.0
2022-10-12T15:03:01.485Z,64.0
2022-10-12T15:05:42.196Z,64.0
2022-10-12T15:08:12.792Z,64.0
2022-10-12T15:10:43.469Z,64.0
2022-10-12T15:13:14.108Z,64.0
2022-10-12T15:15:44.697Z,65.0
2022-10-12T15:18:15.291Z,65.0
2022-10-12T15:20:59.787Z,65.0
2022-10-12T15:23:30.403Z,65.0
2022-10-12T15:26:00.990Z,65.0
2022-10-12T15:28:31.802Z,66.0
2022-10-12T15:33:32.623Z,66.0
2022-10-12T15:36:13.226Z,66.0
2022-10-12T15:38:43.823Z,66.0
2022-10-12T15:41:14.423Z,66.0
2022-10-12T15:43:49.774Z,66.0
2022-10-12T15:46:20.345Z,66.0
2022-10-12T15:48:50.921Z,66.0
2022-10-12T15:51:31.507Z,66.0
2022-10-12T15:54:02.112Z,67.0
2022-10-12T15:56:32.693Z,67.0
2022-10-12T15:59:03.300Z,67.0
2022-10-12T16:01:33.976Z,67.0
2022-10-12T16:04:04.542Z,67.0
2022-10-12T16:06:45.147Z,67.0
2022-10-12T16:09:15.727Z,67.0
2022-10-12T16:14:16.457Z,67.0
2022-10-12T16:16:47.042Z,67.0
2022-10-12T16:19:29.397Z,67.0
2022-10-12T16:21:59.996Z,68.0
2022-10-12T16:24:30.574Z,68.0
2022-10-12T16:27:01.165Z,68.0
2022-10-12T16:29:32.044Z,68.0
2022-10-12T16:32:02.622Z,68.0
2022-10-12T16:34:43.670Z,68.0
2022-10-12T16:37:14.498Z,68.0
2022-10-12T16:39:45.065Z,68.0
2022-10-12T16:42:15.894Z,68.0
2022-10-12T16:44:46.696Z,68.0
2022-10-12T16:47:17.253Z,67.0
2022-10-12T16:49:57.942Z,68.0
2022-10-12T16:57:28.850Z,68.0
2022-10-12T16:59:59.434Z,68.0
2022-10-12T17:02:30.022Z,68.0
2022-10-12T17:05:10.613Z,68.0
2022-10-12T17:07:41.211Z,68.0
2022-10-12T17:10:11.800Z,68.0
2022-10-12T17:12:42.383Z,68.0
2022-10-12T17:15:12.972Z,68.0
2022-10-12T17:17:53.576Z,68.0
2022-10-12T17:20:24.211Z,68.0
2022-10-12T17:22:54.803Z,69.0
2022-10-12T17:25:25.396Z,69.0
2022-10-12T17:27:55.965Z,69.0
2022-10-12T17:30:26.583Z,69.0
2022-10-12T17:35:37.333Z,69.0
2022-10-12T17:38:07.903Z,69.0
2022-10-12T17:40:38.494Z,69.0
2022-10-12T17:43:09.102Z,69.0
2022-10-12T17:45:39.709Z,69.0
2022-10-12T17:48:20.306Z,69.0
2022-10-12T17:50:50.874Z,69.0
2022-10-12T17:53:21.473Z,69.0
2022-10-12T17:55:59.198Z,69.0
2022-10-12T17:58:29.827Z,69.0
2022-10-12T18:01:00.518Z,69.0
2022-10-12T18:03:41.208Z,69.0
2022-10-12T18:06:11.839Z,69.0
2022-10-12T18:08:42.434Z,69.0
2022-10-12T18:11:13.001Z,69.0
2022-10-12T18:16:23.759Z,69.0
2022-10-12T18:18:54.362Z,69.0
2022-10-12T18:21:24.940Z,69.0
2022-10-12T18:23:55.532Z,70.0
2022-10-12T18:26:26.113Z,70.0
2022-10-12T18:28:56.854Z,70.0
2022-10-12T18:31:37.464Z,70.0
2022-10-12T18:34:08.068Z,70.0
2022-10-12T18:36:38.631Z,70.0
2022-10-12T18:39:09.226Z,70.0
2022-10-12T18:41:39.812Z,70.0
2022-10-12T18:44:10.476Z,70.0
2022-10-12T18:46:51.072Z,70.0
2022-10-12T18:49:21.660Z,70.0
2022-10-12T18:51:52.268Z,70.0
2022-10-12T18:56:53.025Z,70.0
2022-10-12T18:59:23.621Z,70.0
2022-10-12T19:02:04.202Z,70.0
2022-10-12T19:04:34.869Z,70.0
2022-10-12T19:07:08.054Z,70.0
2022-10-12T19:09:38.666Z,70.0
2022-10-12T19:12:09.266Z,70.0
2022-10-12T19:14:40.274Z,70.0
2022-10-12T19:17:20.850Z,71.0
2022-10-12T19:19:51.431Z,71.0
2022-10-12T19:22:22.028Z,71.0
2022-10-12T19:24:52.609Z,71.0
2022-10-12T19:27:23.193Z,71.0
2022-10-12T19:30:03.786Z,71.0
2022-10-12T19:32:34.398Z,71.0
2022-10-12T19:37:35.156Z,71.0
2022-10-12T19:40:07.723Z,71.0
2022-10-12T19:42:38.505Z,71.0
2022-10-12T19:45:19.112Z,71.0
2022-10-12T19:47:49.715Z,71.0
2022-10-12T19:50:20.306Z,71.0
2022-10-12T19:52:50.899Z,71.0
2022-10-12T19:55:21.485Z,71.0
2022-10-12T19:57:52.066Z,71.0
2022-10-12T20:00:32.714Z,71.0
2022-10-12T20:03:03.429Z,71.0
2022-10-12T20:05:34.041Z,71.0
2022-10-12T20:08:04.638Z,71.0
2022-10-12T20:10:35.241Z,71.0
2022-10-12T20:13:15.830Z,71.0
2022-10-12T20:18:16.599Z,71.0
2022-10-12T20:20:47.188Z,71.0
2022-10-12T20:23:17.770Z,71.0
2022-10-12T20:25:48.339Z,71.0
2022-10-12T20:28:29.064Z,71.0
2022-10-12T20:30:59.782Z,71.0
2022-10-12T20:33:30.385Z,71.0
2022-10-12T20:36:00.966Z,71.0
2022-10-12T20:38:31.560Z,71.0
2022-10-12T20:41:02.140Z,71.0
2022-10-12T20:43:42.762Z,71.0
2022-10-12T20:46:13.328Z,71.0
2022-10-12T20:48:43.907Z,71.0
2022-10-12T20:51:18.827Z,71.0
2022-10-12T20:53:49.417Z,71.0
2022-10-12T20:59:00.176Z,71.0
2022-10-12T21:01:30.853Z,71.0
2022-10-12T21:04:01.440Z,71.0
2022-10-12T21:06:32.044Z,71.0
2022-10-12T21:09:02.626Z,71.0
2022-10-12T21:11:43.224Z,71.0
2022-10-12T21:14:13.812Z,72.0
2022-10-12T21:16:44.397Z,72.0
2022-10-12T21:19:15.007Z,72.0
2022-10-12T21:21:45.598Z,72.0
2022-10-12T21:24:16.203Z,72.0
2022-10-12T21:26:56.813Z,72.0
2022-10-12T21:29:27.434Z,72.0
2022-10-12T21:31:58.038Z,72.0
2022-10-12T21:34:28.640Z,72.0
2022-10-12T21:39:39.371Z,72.0
2022-10-12T21:42:14.724Z,72.0
2022-10-12T21:44:45.342Z,72.0
2022-10-12T21:47:18.168Z,72.0
2022-10-12T21:49:48.926Z,72.0
2022-10-12T21:52:19.862Z,72.0
2022-10-12T21:55:00.602Z,72.0
2022-10-12T21:57:31.203Z,72.0
2022-10-12T22:00:01.822Z,72.0
2022-10-12T22:02:32.385Z,72.0
2022-10-12T22:05:02.976Z,72.0
2022-10-12T22:07:33.556Z,72.0
2022-10-12T22:10:14.167Z,72.0
2022-10-12T22:12:44.767Z,72.0
2022-10-12T22:15:15.361Z,72.0
2022-10-12T22:20:16.116Z,72.0
2022-10-12T22:22:56.741Z,72.0
2022-10-12T22:25:27.336Z,72.0
2022-10-12T22:27:57.920Z,72.0
2022-10-12T22:30:28.545Z,72.0
2022-10-12T22:32:59.148Z,72.0
2022-10-12T22:35:29.720Z,72.0
2022-10-12T22:38:10.295Z,72.0
2022-10-12T22:40:40.895Z,72.0
2022-10-12T22:45:41.677Z,73.0
2022-10-12T22:48:12.248Z,73.0
2022-10-12T22:50:42.817Z,73.0
2022-10-12T22:53:23.403Z,73.0
2022-10-12T22:55:54.008Z,73.0
2022-10-12T23:00:54.884Z,73.0
2022-10-12T23:03:25.735Z,73.0
2022-10-12T23:06:06.321Z,73.0
2022-10-12T23:08:36.933Z,73.0
2022-10-12T23:11:07.501Z,73.0
2022-10-12T23:13:38.097Z,73.0
2022-10-12T23:16:08.651Z,73.0
2022-10-12T23:18:39.235Z,73.0
2022-10-12T23:21:19.836Z,73.0
2022-10-12T23:23:50.432Z,73.0
2022-10-12T23:26:20.995Z,73.0
2022-10-12T23:28:51.762Z,73.0
2022-10-12T23:31:22.397Z,73.0
2022-10-12T23:33:53.019Z,73.0
2022-10-12T23:36:33.634Z,73.0
2022-10-12T23:41:34.384Z,73.0
2022-10-12T23:44:05.008Z,73.0
2022-10-12T23:46:35.602Z,73.0
2022-10-12T23:49:06.184Z,73.0
2022-10-12T23:51:46.761Z,73.0
2022-10-12T23:54:17.349Z,73.0
2022-10-12T23:56:57.960Z,74.0
2022-10-12T23:59:28.513Z,74.0
